<?xml version="1.0" encoding="UTF-8" standalone="no" ?>
<gpx xmlns="http://www.topografix.com/GPX/1/1" xmlns:xsi="http://www.w3.org/2001/XMLSchema-instance" xsi:schemaLocation="http://www.topografix.com/GPX/1/1 http://www.topografix.com/GPX/1/1/gpx.xsd" version="1.1" creator="VisuGPX - https://www.visugpx.com">
  <metadata>
    <name>Gigors St Supière</name>
    <desc><![CDATA[File with points/tracks from Locus Map/3.20.1]]></desc>
  </metadata>
  <trk>
    <name><![CDATA[F26400 Gigors St Supière LT AM DS]]></name>
    <trkseg>
      <trkpt lat="44.794" lon="5.10806">
        <ele>591.26</ele>
        <time>2016-12-08T11:17:59.765Z</time>
      </trkpt>
      <trkpt lat="44.79379" lon="5.10793">
        <ele>587.95</ele>
        <time>2016-12-08T11:21:47.794Z</time>
      </trkpt>
      <trkpt lat="44.79363" lon="5.10769">
        <ele>588.19</ele>
        <time>2016-12-08T11:22:40.775Z</time>
      </trkpt>
      <trkpt lat="44.79348" lon="5.10743">
        <ele>589.95</ele>
        <time>2016-12-08T11:22:59.796Z</time>
      </trkpt>
      <trkpt lat="44.79335" lon="5.10714">
        <ele>593.11</ele>
        <time>2016-12-08T11:23:32.801Z</time>
      </trkpt>
      <trkpt lat="44.79316" lon="5.10697">
        <ele>591.51</ele>
        <time>2016-12-08T11:24:35.705Z</time>
      </trkpt>
      <trkpt lat="44.79302" lon="5.1067">
        <ele>593.77</ele>
        <time>2016-12-08T11:25:01.747Z</time>
      </trkpt>
      <trkpt lat="44.79285" lon="5.10646">
        <ele>592.91</ele>
        <time>2016-12-08T11:25:22.793Z</time>
      </trkpt>
      <trkpt lat="44.79272" lon="5.10618">
        <ele>593.13</ele>
        <time>2016-12-08T11:25:38.776Z</time>
      </trkpt>
      <trkpt lat="44.79255" lon="5.10597">
        <ele>588.82</ele>
        <time>2016-12-08T11:25:52.788Z</time>
      </trkpt>
      <trkpt lat="44.79254" lon="5.10557">
        <ele>590.23</ele>
        <time>2016-12-08T11:27:13.810Z</time>
      </trkpt>
      <trkpt lat="44.79259" lon="5.10524">
        <ele>591.6</ele>
        <time>2016-12-08T11:27:26.767Z</time>
      </trkpt>
      <trkpt lat="44.7926" lon="5.10491">
        <ele>590.55</ele>
        <time>2016-12-08T11:27:45.794Z</time>
      </trkpt>
      <trkpt lat="44.79258" lon="5.1046">
        <ele>586.39</ele>
        <time>2016-12-08T11:28:03.784Z</time>
      </trkpt>
      <trkpt lat="44.79261" lon="5.10428">
        <ele>583.62</ele>
        <time>2016-12-08T11:28:20.793Z</time>
      </trkpt>
      <trkpt lat="44.79277" lon="5.10403">
        <ele>585.06</ele>
        <time>2016-12-08T11:28:47.802Z</time>
      </trkpt>
      <trkpt lat="44.79294" lon="5.10381">
        <ele>586.45</ele>
        <time>2016-12-08T11:29:02.778Z</time>
      </trkpt>
      <trkpt lat="44.79311" lon="5.10359">
        <ele>588.35</ele>
        <time>2016-12-08T11:29:20.801Z</time>
      </trkpt>
      <trkpt lat="44.79326" lon="5.10333">
        <ele>590.24</ele>
        <time>2016-12-08T11:29:36.808Z</time>
      </trkpt>
      <trkpt lat="44.79337" lon="5.10305">
        <ele>591.23</ele>
        <time>2016-12-08T11:29:56.740Z</time>
      </trkpt>
      <trkpt lat="44.79344" lon="5.10274">
        <ele>591.56</ele>
        <time>2016-12-08T11:30:18.745Z</time>
      </trkpt>
      <trkpt lat="44.79344" lon="5.10241">
        <ele>588.41</ele>
        <time>2016-12-08T11:30:37.724Z</time>
      </trkpt>
      <trkpt lat="44.79341" lon="5.10209">
        <ele>584.78</ele>
        <time>2016-12-08T11:30:58.689Z</time>
      </trkpt>
      <trkpt lat="44.79359" lon="5.10186">
        <ele>586</ele>
        <time>2016-12-08T11:32:19.766Z</time>
      </trkpt>
      <trkpt lat="44.79382" lon="5.10177">
        <ele>588.08</ele>
        <time>2016-12-08T11:32:37.782Z</time>
      </trkpt>
      <trkpt lat="44.79407" lon="5.10163">
        <ele>587.91</ele>
        <time>2016-12-08T11:32:55.701Z</time>
      </trkpt>
      <trkpt lat="44.79428" lon="5.10145">
        <ele>585.71</ele>
        <time>2016-12-08T11:33:34.783Z</time>
      </trkpt>
      <trkpt lat="44.79446" lon="5.10126">
        <ele>583.2</ele>
        <time>2016-12-08T11:33:51.786Z</time>
      </trkpt>
      <trkpt lat="44.79463" lon="5.10104">
        <ele>580.64</ele>
        <time>2016-12-08T11:34:07.806Z</time>
      </trkpt>
      <trkpt lat="44.79481" lon="5.10084">
        <ele>577.81</ele>
        <time>2016-12-08T11:34:48.782Z</time>
      </trkpt>
      <trkpt lat="44.79499" lon="5.10063">
        <ele>574.32</ele>
        <time>2016-12-08T11:35:09.786Z</time>
      </trkpt>
      <trkpt lat="44.79522" lon="5.10061">
        <ele>572.42</ele>
        <time>2016-12-08T11:35:27.774Z</time>
      </trkpt>
      <trkpt lat="44.79545" lon="5.10061">
        <ele>569.88</ele>
        <time>2016-12-08T11:35:51.767Z</time>
      </trkpt>
      <trkpt lat="44.79567" lon="5.10064">
        <ele>567.73</ele>
        <time>2016-12-08T11:36:12.783Z</time>
      </trkpt>
      <trkpt lat="44.79591" lon="5.10068">
        <ele>566.48</ele>
        <time>2016-12-08T11:37:08.688Z</time>
      </trkpt>
      <trkpt lat="44.79614" lon="5.10072">
        <ele>566.36</ele>
        <time>2016-12-08T11:37:25.825Z</time>
      </trkpt>
      <trkpt lat="44.79637" lon="5.10072">
        <ele>566.03</ele>
        <time>2016-12-08T11:37:42.766Z</time>
      </trkpt>
      <trkpt lat="44.79661" lon="5.10077">
        <ele>566.21</ele>
        <time>2016-12-08T11:37:58.763Z</time>
      </trkpt>
      <trkpt lat="44.79681" lon="5.10062">
        <ele>563.41</ele>
        <time>2016-12-08T11:38:15.784Z</time>
      </trkpt>
      <trkpt lat="44.79693" lon="5.10034">
        <ele>559.77</ele>
        <time>2016-12-08T11:38:34.784Z</time>
      </trkpt>
      <trkpt lat="44.79716" lon="5.10033">
        <ele>557.68</ele>
        <time>2016-12-08T11:38:56.765Z</time>
      </trkpt>
      <trkpt lat="44.79739" lon="5.10031">
        <ele>554.62</ele>
        <time>2016-12-08T11:39:15.773Z</time>
      </trkpt>
      <trkpt lat="44.79762" lon="5.10034">
        <ele>551.53</ele>
        <time>2016-12-08T11:39:33.696Z</time>
      </trkpt>
      <trkpt lat="44.79787" lon="5.10036">
        <ele>546.96</ele>
        <time>2016-12-08T11:40:37.778Z</time>
      </trkpt>
      <trkpt lat="44.79807" lon="5.10055">
        <ele>547.13</ele>
        <time>2016-12-08T11:40:48.779Z</time>
      </trkpt>
      <trkpt lat="44.7983" lon="5.1005">
        <ele>541.32</ele>
        <time>2016-12-08T11:41:17.797Z</time>
      </trkpt>
      <trkpt lat="44.79852" lon="5.10058">
        <ele>539.54</ele>
        <time>2016-12-08T11:41:36.780Z</time>
      </trkpt>
      <trkpt lat="44.79871" lon="5.10074">
        <ele>541.38</ele>
        <time>2016-12-08T11:41:52.757Z</time>
      </trkpt>
      <trkpt lat="44.79893" lon="5.10083">
        <ele>540.67</ele>
        <time>2016-12-08T11:42:08.777Z</time>
      </trkpt>
      <trkpt lat="44.79917" lon="5.10087">
        <ele>538.42</ele>
        <time>2016-12-08T11:42:30.762Z</time>
      </trkpt>
      <trkpt lat="44.79939" lon="5.10079">
        <ele>532.39</ele>
        <time>2016-12-08T11:42:51.780Z</time>
      </trkpt>
      <trkpt lat="44.79951" lon="5.10051">
        <ele>521.06</ele>
        <time>2016-12-08T11:43:08.779Z</time>
      </trkpt>
      <trkpt lat="44.79976" lon="5.10059">
        <ele>521</ele>
        <time>2016-12-08T11:44:31.780Z</time>
      </trkpt>
      <trkpt lat="44.79997" lon="5.10073">
        <ele>523.71</ele>
        <time>2016-12-08T11:44:45.788Z</time>
      </trkpt>
      <trkpt lat="44.80019" lon="5.10055">
        <ele>516.03</ele>
        <time>2016-12-08T11:45:58.786Z</time>
      </trkpt>
      <trkpt lat="44.80042" lon="5.10045">
        <ele>511.96</ele>
        <time>2016-12-08T11:46:18.782Z</time>
      </trkpt>
      <trkpt lat="44.80065" lon="5.10045">
        <ele>512.41</ele>
        <time>2016-12-08T11:46:49.782Z</time>
      </trkpt>
      <trkpt lat="44.80073" lon="5.10013">
        <ele>508.47</ele>
        <time>2016-12-08T11:49:29.789Z</time>
      </trkpt>
      <trkpt lat="44.80063" lon="5.09984">
        <ele>503.45</ele>
        <time>2016-12-08T11:49:47.779Z</time>
      </trkpt>
      <trkpt lat="44.80052" lon="5.09955">
        <ele>499.2</ele>
        <time>2016-12-08T11:50:12.717Z</time>
      </trkpt>
      <trkpt lat="44.80051" lon="5.09922">
        <ele>496.95</ele>
        <time>2016-12-08T11:50:29.762Z</time>
      </trkpt>
      <trkpt lat="44.80042" lon="5.09891">
        <ele>492.52</ele>
        <time>2016-12-08T11:50:45.763Z</time>
      </trkpt>
      <trkpt lat="44.80043" lon="5.09858">
        <ele>491.02</ele>
        <time>2016-12-08T11:51:04.718Z</time>
      </trkpt>
      <trkpt lat="44.80033" lon="5.09829">
        <ele>487.51</ele>
        <time>2016-12-08T11:51:19.771Z</time>
      </trkpt>
      <trkpt lat="44.80011" lon="5.09811">
        <ele>482.09</ele>
        <time>2016-12-08T11:52:11.786Z</time>
      </trkpt>
      <trkpt lat="44.80002" lon="5.0978">
        <ele>478.85</ele>
        <time>2016-12-08T11:52:25.748Z</time>
      </trkpt>
      <trkpt lat="44.79997" lon="5.09748">
        <ele>476.43</ele>
        <time>2016-12-08T11:52:42.787Z</time>
      </trkpt>
      <trkpt lat="44.79994" lon="5.09716">
        <ele>474.65</ele>
        <time>2016-12-08T11:52:59.776Z</time>
      </trkpt>
      <trkpt lat="44.79985" lon="5.09685">
        <ele>472.09</ele>
        <time>2016-12-08T11:53:14.794Z</time>
      </trkpt>
      <trkpt lat="44.79972" lon="5.09658">
        <ele>469.12</ele>
        <time>2016-12-08T11:53:32.689Z</time>
      </trkpt>
      <trkpt lat="44.79957" lon="5.09631">
        <ele>464.93</ele>
        <time>2016-12-08T11:55:18.762Z</time>
      </trkpt>
      <trkpt lat="44.79941" lon="5.09608">
        <ele>460.89</ele>
        <time>2016-12-08T11:55:32.775Z</time>
      </trkpt>
      <trkpt lat="44.79928" lon="5.09582">
        <ele>457.72</ele>
        <time>2016-12-08T11:55:54.728Z</time>
      </trkpt>
      <trkpt lat="44.79912" lon="5.0956">
        <ele>454.57</ele>
        <time>2016-12-08T11:56:08.776Z</time>
      </trkpt>
      <trkpt lat="44.79896" lon="5.09536">
        <ele>452.05</ele>
        <time>2016-12-08T11:56:26.709Z</time>
      </trkpt>
      <trkpt lat="44.79881" lon="5.09513">
        <ele>450.83</ele>
        <time>2016-12-08T11:56:42.776Z</time>
      </trkpt>
      <trkpt lat="44.79865" lon="5.09489">
        <ele>450.62</ele>
        <time>2016-12-08T11:57:11.784Z</time>
      </trkpt>
      <trkpt lat="44.79852" lon="5.09464">
        <ele>450.82</ele>
        <time>2016-12-08T11:57:31.760Z</time>
      </trkpt>
      <trkpt lat="44.79833" lon="5.09446">
        <ele>448.08</ele>
        <time>2016-12-08T11:58:31.760Z</time>
      </trkpt>
      <trkpt lat="44.79811" lon="5.09432">
        <ele>444.64</ele>
        <time>2016-12-08T11:58:47.764Z</time>
      </trkpt>
      <trkpt lat="44.79791" lon="5.09414">
        <ele>442.09</ele>
        <time>2016-12-08T11:59:04.788Z</time>
      </trkpt>
      <trkpt lat="44.79769" lon="5.09402">
        <ele>440.05</ele>
        <time>2016-12-08T11:59:30.760Z</time>
      </trkpt>
      <trkpt lat="44.79754" lon="5.09376">
        <ele>438.17</ele>
        <time>2016-12-08T11:59:45.753Z</time>
      </trkpt>
      <trkpt lat="44.79733" lon="5.09363">
        <ele>435.43</ele>
        <time>2016-12-08T12:00:43.775Z</time>
      </trkpt>
      <trkpt lat="44.79715" lon="5.09343">
        <ele>432.62</ele>
        <time>2016-12-08T12:01:07.758Z</time>
      </trkpt>
      <trkpt lat="44.79734" lon="5.09317">
        <ele>434.16</ele>
        <time>2016-12-08T12:01:29.766Z</time>
      </trkpt>
      <trkpt lat="44.79741" lon="5.09287">
        <ele>434.37</ele>
        <time>2016-12-08T12:01:46.796Z</time>
      </trkpt>
      <trkpt lat="44.79757" lon="5.09264">
        <ele>437.1</ele>
        <time>2016-12-08T12:02:04.727Z</time>
      </trkpt>
      <trkpt lat="44.79755" lon="5.09231">
        <ele>437.82</ele>
        <time>2016-12-08T12:02:31.692Z</time>
      </trkpt>
      <trkpt lat="44.7974" lon="5.09206">
        <ele>435.64</ele>
        <time>2016-12-08T12:02:48.766Z</time>
      </trkpt>
      <trkpt lat="44.79729" lon="5.09177">
        <ele>436.02</ele>
        <time>2016-12-08T12:03:03.717Z</time>
      </trkpt>
      <trkpt lat="44.79716" lon="5.0915">
        <ele>437.81</ele>
        <time>2016-12-08T12:03:23.726Z</time>
      </trkpt>
      <trkpt lat="44.797" lon="5.09125">
        <ele>440.4</ele>
        <time>2016-12-08T12:03:42.736Z</time>
      </trkpt>
      <trkpt lat="44.7969" lon="5.09097">
        <ele>443.72</ele>
        <time>2016-12-08T12:04:02.684Z</time>
      </trkpt>
      <trkpt lat="44.79682" lon="5.09065">
        <ele>445.97</ele>
        <time>2016-12-08T12:04:23.729Z</time>
      </trkpt>
      <trkpt lat="44.79674" lon="5.09035">
        <ele>446.65</ele>
        <time>2016-12-08T12:04:53.679Z</time>
      </trkpt>
      <trkpt lat="44.79657" lon="5.09013">
        <ele>445.53</ele>
        <time>2016-12-08T12:05:15.684Z</time>
      </trkpt>
      <trkpt lat="44.79639" lon="5.08993">
        <ele>444.97</ele>
        <time>2016-12-08T12:05:33.677Z</time>
      </trkpt>
      <trkpt lat="44.79616" lon="5.08986">
        <ele>443.36</ele>
        <time>2016-12-08T12:05:57.734Z</time>
      </trkpt>
      <trkpt lat="44.79597" lon="5.08968">
        <ele>443.99</ele>
        <time>2016-12-08T12:07:22.754Z</time>
      </trkpt>
      <trkpt lat="44.79577" lon="5.08952">
        <ele>444.12</ele>
        <time>2016-12-08T12:07:39.722Z</time>
      </trkpt>
      <trkpt lat="44.7958" lon="5.0892">
        <ele>448.27</ele>
        <time>2016-12-08T12:09:09.675Z</time>
      </trkpt>
      <trkpt lat="44.79603" lon="5.08909">
        <ele>451.75</ele>
        <time>2016-12-08T12:09:32.953Z</time>
      </trkpt>
      <trkpt lat="44.79625" lon="5.08905">
        <ele>454.05</ele>
        <time>2016-12-08T12:09:53.677Z</time>
      </trkpt>
      <trkpt lat="44.79647" lon="5.08899">
        <ele>456.11</ele>
        <time>2016-12-08T12:10:13.679Z</time>
      </trkpt>
      <trkpt lat="44.7967" lon="5.08894">
        <ele>458.29</ele>
        <time>2016-12-08T12:10:35.702Z</time>
      </trkpt>
      <trkpt lat="44.79692" lon="5.08898">
        <ele>460.36</ele>
        <time>2016-12-08T12:11:05.741Z</time>
      </trkpt>
      <trkpt lat="44.79716" lon="5.08887">
        <ele>463.09</ele>
        <time>2016-12-08T12:11:44.729Z</time>
      </trkpt>
      <trkpt lat="44.7973" lon="5.08862">
        <ele>465.86</ele>
        <time>2016-12-08T12:12:02.753Z</time>
      </trkpt>
      <trkpt lat="44.79742" lon="5.08834">
        <ele>468.84</ele>
        <time>2016-12-08T12:12:24.689Z</time>
      </trkpt>
      <trkpt lat="44.79756" lon="5.08806">
        <ele>471.07</ele>
        <time>2016-12-08T12:12:43.698Z</time>
      </trkpt>
      <trkpt lat="44.79777" lon="5.08796">
        <ele>474.51</ele>
        <time>2016-12-08T12:13:05.753Z</time>
      </trkpt>
      <trkpt lat="44.79798" lon="5.08782">
        <ele>479.31</ele>
        <time>2016-12-08T12:13:32.738Z</time>
      </trkpt>
      <trkpt lat="44.79821" lon="5.08786">
        <ele>484.08</ele>
        <time>2016-12-08T12:13:55.727Z</time>
      </trkpt>
      <trkpt lat="44.79843" lon="5.08795">
        <ele>489.09</ele>
        <time>2016-12-08T12:15:45.854Z</time>
      </trkpt>
      <trkpt lat="44.79867" lon="5.08796">
        <ele>496.68</ele>
        <time>2016-12-08T12:16:05.880Z</time>
      </trkpt>
      <trkpt lat="44.79879" lon="5.08823">
        <ele>497.94</ele>
        <time>2016-12-08T12:18:38.678Z</time>
      </trkpt>
      <trkpt lat="44.79902" lon="5.08833">
        <ele>505.95</ele>
        <time>2016-12-08T12:19:00.716Z</time>
      </trkpt>
      <trkpt lat="44.79925" lon="5.0884">
        <ele>515.16</ele>
        <time>2016-12-08T12:19:30.749Z</time>
      </trkpt>
      <trkpt lat="44.79943" lon="5.0886">
        <ele>520.76</ele>
        <time>2016-12-08T12:19:44.731Z</time>
      </trkpt>
      <trkpt lat="44.79943" lon="5.08892">
        <ele>516.69</ele>
        <time>2016-12-08T12:20:08.757Z</time>
      </trkpt>
      <trkpt lat="44.79934" lon="5.08922">
        <ele>512.29</ele>
        <time>2016-12-08T12:20:28.731Z</time>
      </trkpt>
      <trkpt lat="44.79928" lon="5.08955">
        <ele>514.21</ele>
        <time>2016-12-08T12:20:47.745Z</time>
      </trkpt>
      <trkpt lat="44.79926" lon="5.08987">
        <ele>520.89</ele>
        <time>2016-12-08T12:21:06.729Z</time>
      </trkpt>
      <trkpt lat="44.79945" lon="5.09008">
        <ele>537.08</ele>
        <time>2016-12-08T12:22:04.683Z</time>
      </trkpt>
      <trkpt lat="44.79965" lon="5.08991">
        <ele>542.93</ele>
        <time>2016-12-08T12:22:33.725Z</time>
      </trkpt>
      <trkpt lat="44.79983" lon="5.08971">
        <ele>546.86</ele>
        <time>2016-12-08T12:23:10.735Z</time>
      </trkpt>
      <trkpt lat="44.8" lon="5.08947">
        <ele>549.05</ele>
        <time>2016-12-08T12:23:26.749Z</time>
      </trkpt>
      <trkpt lat="44.80025" lon="5.08949">
        <ele>560.67</ele>
        <time>2016-12-08T12:25:01.738Z</time>
      </trkpt>
      <trkpt lat="44.80027" lon="5.08916">
        <ele>555.47</ele>
        <time>2016-12-08T12:26:25.747Z</time>
      </trkpt>
      <trkpt lat="44.80013" lon="5.08891">
        <ele>550.22</ele>
        <time>2016-12-08T12:26:45.676Z</time>
      </trkpt>
      <trkpt lat="44.79998" lon="5.08866">
        <ele>547.88</ele>
        <time>2016-12-08T12:27:09.642Z</time>
      </trkpt>
      <trkpt lat="44.7999" lon="5.08834">
        <ele>550.19</ele>
        <time>2016-12-08T12:27:47.606Z</time>
      </trkpt>
      <trkpt lat="44.79979" lon="5.08805">
        <ele>549.25</ele>
        <time>2016-12-08T12:28:12.716Z</time>
      </trkpt>
      <trkpt lat="44.79999" lon="5.08821">
        <ele>556.6</ele>
        <time>2016-12-08T12:35:20.727Z</time>
      </trkpt>
      <trkpt lat="44.80021" lon="5.0883">
        <ele>564.92</ele>
        <time>2016-12-08T12:35:44.763Z</time>
      </trkpt>
      <trkpt lat="44.80045" lon="5.08838">
        <ele>574.33</ele>
        <time>2016-12-08T12:36:16.732Z</time>
      </trkpt>
      <trkpt lat="44.80067" lon="5.08849">
        <ele>580.89</ele>
        <time>2016-12-08T12:36:32.689Z</time>
      </trkpt>
      <trkpt lat="44.80096" lon="5.08851">
        <ele>591.07</ele>
        <time>2016-12-08T12:40:19.698Z</time>
      </trkpt>
      <trkpt lat="44.8012" lon="5.0885">
        <ele>599.25</ele>
        <time>2016-12-08T12:40:48.727Z</time>
      </trkpt>
      <trkpt lat="44.80135" lon="5.08827">
        <ele>606.77</ele>
        <time>2016-12-08T12:41:36.742Z</time>
      </trkpt>
      <trkpt lat="44.80157" lon="5.08815">
        <ele>614.19</ele>
        <time>2016-12-08T12:42:41.654Z</time>
      </trkpt>
      <trkpt lat="44.80179" lon="5.08804">
        <ele>621.17</ele>
        <time>2016-12-08T12:43:01.662Z</time>
      </trkpt>
      <trkpt lat="44.80202" lon="5.08804">
        <ele>626.85</ele>
        <time>2016-12-08T12:43:38.715Z</time>
      </trkpt>
      <trkpt lat="44.80225" lon="5.08795">
        <ele>632.9</ele>
        <time>2016-12-08T12:44:07.744Z</time>
      </trkpt>
      <trkpt lat="44.80248" lon="5.08804">
        <ele>638.24</ele>
        <time>2016-12-08T12:46:03.705Z</time>
      </trkpt>
      <trkpt lat="44.80271" lon="5.08803">
        <ele>643.99</ele>
        <time>2016-12-08T12:46:12.744Z</time>
      </trkpt>
      <trkpt lat="44.80294" lon="5.08805">
        <ele>649.99</ele>
        <time>2016-12-08T12:51:44.755Z</time>
      </trkpt>
      <trkpt lat="44.80318" lon="5.08803">
        <ele>655.82</ele>
        <time>2016-12-08T12:51:58.736Z</time>
      </trkpt>
      <trkpt lat="44.8034" lon="5.08793">
        <ele>660.19</ele>
        <time>2016-12-08T12:52:19.745Z</time>
      </trkpt>
      <trkpt lat="44.80364" lon="5.08797">
        <ele>666.39</ele>
        <time>2016-12-08T12:53:35.738Z</time>
      </trkpt>
      <trkpt lat="44.80385" lon="5.08786">
        <ele>670.74</ele>
        <time>2016-12-08T12:53:50.715Z</time>
      </trkpt>
      <trkpt lat="44.80407" lon="5.08776">
        <ele>676.1</ele>
        <time>2016-12-08T12:54:12.748Z</time>
      </trkpt>
      <trkpt lat="44.80425" lon="5.08757">
        <ele>680.55</ele>
        <time>2016-12-08T12:54:34.726Z</time>
      </trkpt>
      <trkpt lat="44.80443" lon="5.08737">
        <ele>684.68</ele>
        <time>2016-12-08T12:55:02.758Z</time>
      </trkpt>
      <trkpt lat="44.80462" lon="5.08756">
        <ele>690.19</ele>
        <time>2016-12-08T12:55:36.724Z</time>
      </trkpt>
      <trkpt lat="44.80478" lon="5.08732">
        <ele>692.82</ele>
        <time>2016-12-08T12:56:42.720Z</time>
      </trkpt>
      <trkpt lat="44.80495" lon="5.08713">
        <ele>696.96</ele>
        <time>2016-12-08T12:57:06.755Z</time>
      </trkpt>
      <trkpt lat="44.80518" lon="5.08707">
        <ele>702.3</ele>
        <time>2016-12-08T12:57:36.723Z</time>
      </trkpt>
      <trkpt lat="44.8054" lon="5.08697">
        <ele>707.19</ele>
        <time>2016-12-08T12:57:58.705Z</time>
      </trkpt>
      <trkpt lat="44.80564" lon="5.08692">
        <ele>712.39</ele>
        <time>2016-12-08T12:58:50.727Z</time>
      </trkpt>
      <trkpt lat="44.80587" lon="5.08692">
        <ele>717.17</ele>
        <time>2016-12-08T12:59:10.714Z</time>
      </trkpt>
      <trkpt lat="44.80611" lon="5.08687">
        <ele>721.62</ele>
        <time>2016-12-08T12:59:47.745Z</time>
      </trkpt>
      <trkpt lat="44.80634" lon="5.08677">
        <ele>724.29</ele>
        <time>2016-12-08T13:00:29.714Z</time>
      </trkpt>
      <trkpt lat="44.80656" lon="5.08687">
        <ele>729.66</ele>
        <time>2016-12-08T13:02:44.660Z</time>
      </trkpt>
      <trkpt lat="44.80681" lon="5.08687">
        <ele>732.38</ele>
        <time>2016-12-08T13:06:36.705Z</time>
      </trkpt>
      <trkpt lat="44.80704" lon="5.08678">
        <ele>731.86</ele>
        <time>2016-12-08T13:06:56.724Z</time>
      </trkpt>
      <trkpt lat="44.80729" lon="5.08686">
        <ele>733.92</ele>
        <time>2016-12-08T13:07:11.720Z</time>
      </trkpt>
      <trkpt lat="44.80754" lon="5.087">
        <ele>736.39</ele>
        <time>2016-12-08T13:07:47.725Z</time>
      </trkpt>
      <trkpt lat="44.80777" lon="5.0871">
        <ele>737.47</ele>
        <time>2016-12-08T13:08:04.710Z</time>
      </trkpt>
      <trkpt lat="44.80799" lon="5.08713">
        <ele>737.1</ele>
        <time>2016-12-08T13:08:20.666Z</time>
      </trkpt>
      <trkpt lat="44.80821" lon="5.08705">
        <ele>734.93</ele>
        <time>2016-12-08T13:08:42.719Z</time>
      </trkpt>
      <trkpt lat="44.80844" lon="5.08695">
        <ele>733.88</ele>
        <time>2016-12-08T13:09:03.739Z</time>
      </trkpt>
      <trkpt lat="44.80867" lon="5.08688">
        <ele>735.21</ele>
        <time>2016-12-08T13:09:22.717Z</time>
      </trkpt>
      <trkpt lat="44.80891" lon="5.08682">
        <ele>737.71</ele>
        <time>2016-12-08T13:09:53.710Z</time>
      </trkpt>
      <trkpt lat="44.80914" lon="5.0868">
        <ele>739.91</ele>
        <time>2016-12-08T13:10:14.737Z</time>
      </trkpt>
      <trkpt lat="44.80937" lon="5.08688">
        <ele>741.99</ele>
        <time>2016-12-08T13:10:30.729Z</time>
      </trkpt>
      <trkpt lat="44.80954" lon="5.08708">
        <ele>744.45</ele>
        <time>2016-12-08T13:11:03.663Z</time>
      </trkpt>
      <trkpt lat="44.80957" lon="5.08741">
        <ele>747.86</ele>
        <time>2016-12-08T13:11:53.665Z</time>
      </trkpt>
      <trkpt lat="44.80979" lon="5.08752">
        <ele>748.14</ele>
        <time>2016-12-08T13:12:09.727Z</time>
      </trkpt>
      <trkpt lat="44.81003" lon="5.08757">
        <ele>746.74</ele>
        <time>2016-12-08T13:12:28.696Z</time>
      </trkpt>
      <trkpt lat="44.81027" lon="5.0877">
        <ele>744.72</ele>
        <time>2016-12-08T13:12:50.721Z</time>
      </trkpt>
      <trkpt lat="44.81052" lon="5.08774">
        <ele>740.36</ele>
        <time>2016-12-08T13:13:08.716Z</time>
      </trkpt>
      <trkpt lat="44.81067" lon="5.088">
        <ele>741.37</ele>
        <time>2016-12-08T13:13:29.728Z</time>
      </trkpt>
      <trkpt lat="44.81091" lon="5.08802">
        <ele>737.66</ele>
        <time>2016-12-08T13:13:46.702Z</time>
      </trkpt>
      <trkpt lat="44.81114" lon="5.0881">
        <ele>736.07</ele>
        <time>2016-12-08T13:14:02.727Z</time>
      </trkpt>
      <trkpt lat="44.81137" lon="5.08814">
        <ele>734.08</ele>
        <time>2016-12-08T13:14:22.715Z</time>
      </trkpt>
      <trkpt lat="44.81162" lon="5.08818">
        <ele>731.79</ele>
        <time>2016-12-08T13:14:41.708Z</time>
      </trkpt>
      <trkpt lat="44.81181" lon="5.08835">
        <ele>732.66</ele>
        <time>2016-12-08T13:15:00.674Z</time>
      </trkpt>
      <trkpt lat="44.81204" lon="5.08839">
        <ele>730.62</ele>
        <time>2016-12-08T13:15:17.715Z</time>
      </trkpt>
      <trkpt lat="44.81229" lon="5.08838">
        <ele>727.53</ele>
        <time>2016-12-08T13:15:33.712Z</time>
      </trkpt>
      <trkpt lat="44.8125" lon="5.08848">
        <ele>728.14</ele>
        <time>2016-12-08T13:15:54.719Z</time>
      </trkpt>
      <trkpt lat="44.81274" lon="5.08854">
        <ele>727.1</ele>
        <time>2016-12-08T13:16:13.660Z</time>
      </trkpt>
      <trkpt lat="44.81295" lon="5.08866">
        <ele>727.63</ele>
        <time>2016-12-08T13:16:32.658Z</time>
      </trkpt>
      <trkpt lat="44.81314" lon="5.08888">
        <ele>730.98</ele>
        <time>2016-12-08T13:16:53.653Z</time>
      </trkpt>
      <trkpt lat="44.81332" lon="5.08907">
        <ele>733.33</ele>
        <time>2016-12-08T13:17:11.705Z</time>
      </trkpt>
      <trkpt lat="44.81355" lon="5.08913">
        <ele>730.71</ele>
        <time>2016-12-08T13:17:28.684Z</time>
      </trkpt>
      <trkpt lat="44.81377" lon="5.08919">
        <ele>727.8</ele>
        <time>2016-12-08T13:17:41.736Z</time>
      </trkpt>
      <trkpt lat="44.8139" lon="5.08946">
        <ele>733.68</ele>
        <time>2016-12-08T13:17:47.676Z</time>
      </trkpt>
      <trkpt lat="44.81382" lon="5.08916">
        <ele>726.18</ele>
        <time>2016-12-08T13:18:03.695Z</time>
      </trkpt>
      <trkpt lat="44.81403" lon="5.08931">
        <ele>726.53</ele>
        <time>2016-12-08T13:20:02.651Z</time>
      </trkpt>
      <trkpt lat="44.81426" lon="5.08939">
        <ele>725.87</ele>
        <time>2016-12-08T13:20:14.647Z</time>
      </trkpt>
      <trkpt lat="44.81449" lon="5.08951">
        <ele>727.59</ele>
        <time>2016-12-08T13:20:33.674Z</time>
      </trkpt>
      <trkpt lat="44.8147" lon="5.08965">
        <ele>730.19</ele>
        <time>2016-12-08T13:20:51.665Z</time>
      </trkpt>
      <trkpt lat="44.81491" lon="5.08954">
        <ele>726.18</ele>
        <time>2016-12-08T13:21:57.652Z</time>
      </trkpt>
      <trkpt lat="44.81514" lon="5.08964">
        <ele>727.36</ele>
        <time>2016-12-08T13:22:41.681Z</time>
      </trkpt>
      <trkpt lat="44.81535" lon="5.08975">
        <ele>729.15</ele>
        <time>2016-12-08T13:23:34.671Z</time>
      </trkpt>
      <trkpt lat="44.81557" lon="5.08985">
        <ele>730.68</ele>
        <time>2016-12-08T13:23:52.720Z</time>
      </trkpt>
      <trkpt lat="44.8158" lon="5.08997">
        <ele>732.39</ele>
        <time>2016-12-08T13:24:07.711Z</time>
      </trkpt>
      <trkpt lat="44.81602" lon="5.08998">
        <ele>731.47</ele>
        <time>2016-12-08T13:24:24.711Z</time>
      </trkpt>
      <trkpt lat="44.81625" lon="5.09006">
        <ele>732.01</ele>
        <time>2016-12-08T13:24:41.669Z</time>
      </trkpt>
      <trkpt lat="44.81646" lon="5.0902">
        <ele>734.11</ele>
        <time>2016-12-08T13:25:00.694Z</time>
      </trkpt>
      <trkpt lat="44.81669" lon="5.09014">
        <ele>731.88</ele>
        <time>2016-12-08T13:25:26.713Z</time>
      </trkpt>
      <trkpt lat="44.81649" lon="5.09032">
        <ele>737.18</ele>
        <time>2016-12-08T13:34:25.702Z</time>
      </trkpt>
      <trkpt lat="44.81627" lon="5.09043">
        <ele>741.55</ele>
        <time>2016-12-08T13:34:37.699Z</time>
      </trkpt>
      <trkpt lat="44.81605" lon="5.09055">
        <ele>746.84</ele>
        <time>2016-12-08T13:35:24.712Z</time>
      </trkpt>
      <trkpt lat="44.81581" lon="5.09054">
        <ele>748.75</ele>
        <time>2016-12-08T13:35:50.707Z</time>
      </trkpt>
      <trkpt lat="44.81558" lon="5.09058">
        <ele>751.8</ele>
        <time>2016-12-08T13:36:38.744Z</time>
      </trkpt>
      <trkpt lat="44.81537" lon="5.09071">
        <ele>758</ele>
        <time>2016-12-08T13:37:05.704Z</time>
      </trkpt>
      <trkpt lat="44.81515" lon="5.0908">
        <ele>763.44</ele>
        <time>2016-12-08T13:37:37.706Z</time>
      </trkpt>
      <trkpt lat="44.81493" lon="5.09091">
        <ele>769.18</ele>
        <time>2016-12-08T13:38:12.713Z</time>
      </trkpt>
      <trkpt lat="44.81478" lon="5.09116">
        <ele>778.87</ele>
        <time>2016-12-08T13:39:53.688Z</time>
      </trkpt>
      <trkpt lat="44.81459" lon="5.0914">
        <ele>789.87</ele>
        <time>2016-12-08T13:41:35.637Z</time>
      </trkpt>
      <trkpt lat="44.81438" lon="5.09149">
        <ele>796.61</ele>
        <time>2016-12-08T13:41:41.640Z</time>
      </trkpt>
      <trkpt lat="44.81414" lon="5.09153">
        <ele>801.94</ele>
        <time>2016-12-08T13:42:31.699Z</time>
      </trkpt>
      <trkpt lat="44.81392" lon="5.0916">
        <ele>808.78</ele>
        <time>2016-12-08T13:42:49.707Z</time>
      </trkpt>
      <trkpt lat="44.8137" lon="5.09172">
        <ele>817.4</ele>
        <time>2016-12-08T13:45:06.696Z</time>
      </trkpt>
      <trkpt lat="44.81348" lon="5.0917">
        <ele>821.78</ele>
        <time>2016-12-08T13:45:24.691Z</time>
      </trkpt>
      <trkpt lat="44.81325" lon="5.09159">
        <ele>825.16</ele>
        <time>2016-12-08T13:47:19.714Z</time>
      </trkpt>
      <trkpt lat="44.81302" lon="5.09154">
        <ele>833.29</ele>
        <time>2016-12-08T13:47:41.698Z</time>
      </trkpt>
      <trkpt lat="44.81278" lon="5.09153">
        <ele>844.56</ele>
        <time>2016-12-08T13:49:46.709Z</time>
      </trkpt>
      <trkpt lat="44.81266" lon="5.09123">
        <ele>834.68</ele>
        <time>2016-12-08T13:49:54.706Z</time>
      </trkpt>
      <trkpt lat="44.81278" lon="5.09164">
        <ele>848.47</ele>
        <time>2016-12-08T13:50:18.665Z</time>
      </trkpt>
      <trkpt lat="44.81265" lon="5.09138">
        <ele>842.74</ele>
        <time>2016-12-08T13:50:24.696Z</time>
      </trkpt>
      <trkpt lat="44.81248" lon="5.09117">
        <ele>837.97</ele>
        <time>2016-12-08T13:50:55.706Z</time>
      </trkpt>
      <trkpt lat="44.81266" lon="5.09137">
        <ele>842.46</ele>
        <time>2016-12-08T13:55:33.679Z</time>
      </trkpt>
      <trkpt lat="44.81279" lon="5.09164">
        <ele>848.2</ele>
        <time>2016-12-08T13:55:44.688Z</time>
      </trkpt>
      <trkpt lat="44.81245" lon="5.09205">
        <ele>871.05</ele>
        <time>2016-12-08T13:56:04.661Z</time>
      </trkpt>
      <trkpt lat="44.81265" lon="5.09181">
        <ele>859.83</ele>
        <time>2016-12-08T13:56:08.689Z</time>
      </trkpt>
      <trkpt lat="44.8129" lon="5.09167">
        <ele>844.23</ele>
        <time>2016-12-08T13:56:18.695Z</time>
      </trkpt>
      <trkpt lat="44.81312" lon="5.09166">
        <ele>832.91</ele>
        <time>2016-12-08T13:57:02.670Z</time>
      </trkpt>
      <trkpt lat="44.8133" lon="5.09187">
        <ele>833.4</ele>
        <time>2016-12-08T14:03:33.687Z</time>
      </trkpt>
      <trkpt lat="44.81338" lon="5.09218">
        <ele>842.43</ele>
        <time>2016-12-08T14:03:52.692Z</time>
      </trkpt>
      <trkpt lat="44.81351" lon="5.09244">
        <ele>848.16</ele>
        <time>2016-12-08T14:05:35.706Z</time>
      </trkpt>
      <trkpt lat="44.81371" lon="5.09265">
        <ele>851.12</ele>
        <time>2016-12-08T14:05:47.691Z</time>
      </trkpt>
      <trkpt lat="44.81349" lon="5.09267">
        <ele>855.8</ele>
        <time>2016-12-08T14:07:15.690Z</time>
      </trkpt>
      <trkpt lat="44.81344" lon="5.09298">
        <ele>865.11</ele>
        <time>2016-12-08T14:11:18.685Z</time>
      </trkpt>
      <trkpt lat="44.81324" lon="5.09317">
        <ele>869.83</ele>
        <time>2016-12-08T14:11:58.702Z</time>
      </trkpt>
      <trkpt lat="44.81302" lon="5.0933">
        <ele>871.95</ele>
        <time>2016-12-08T14:12:15.695Z</time>
      </trkpt>
      <trkpt lat="44.81282" lon="5.09356">
        <ele>872.65</ele>
        <time>2016-12-08T14:12:40.704Z</time>
      </trkpt>
      <trkpt lat="44.81259" lon="5.09355">
        <ele>872.33</ele>
        <time>2016-12-08T14:13:55.699Z</time>
      </trkpt>
      <trkpt lat="44.81239" lon="5.09371">
        <ele>870.95</ele>
        <time>2016-12-08T14:15:19.700Z</time>
      </trkpt>
      <trkpt lat="44.8122" lon="5.09389">
        <ele>869.11</ele>
        <time>2016-12-08T14:15:36.695Z</time>
      </trkpt>
      <trkpt lat="44.81205" lon="5.09416">
        <ele>866.87</ele>
        <time>2016-12-08T14:15:57.708Z</time>
      </trkpt>
      <trkpt lat="44.81186" lon="5.09437">
        <ele>864.99</ele>
        <time>2016-12-08T14:21:01.694Z</time>
      </trkpt>
      <trkpt lat="44.81166" lon="5.09454">
        <ele>863.07</ele>
        <time>2016-12-08T14:21:27.697Z</time>
      </trkpt>
      <trkpt lat="44.81143" lon="5.09452">
        <ele>861.75</ele>
        <time>2016-12-08T14:21:49.695Z</time>
      </trkpt>
      <trkpt lat="44.8112" lon="5.09445">
        <ele>860.65</ele>
        <time>2016-12-08T14:22:08.689Z</time>
      </trkpt>
      <trkpt lat="44.81096" lon="5.09446">
        <ele>858.52</ele>
        <time>2016-12-08T14:22:36.693Z</time>
      </trkpt>
      <trkpt lat="44.81076" lon="5.09461">
        <ele>855.07</ele>
        <time>2016-12-08T14:24:28.702Z</time>
      </trkpt>
      <trkpt lat="44.81063" lon="5.09488">
        <ele>850.9</ele>
        <time>2016-12-08T14:25:02.702Z</time>
      </trkpt>
      <trkpt lat="44.81043" lon="5.09505">
        <ele>845.42</ele>
        <time>2016-12-08T14:25:37.703Z</time>
      </trkpt>
      <trkpt lat="44.81038" lon="5.09536">
        <ele>839.87</ele>
        <time>2016-12-08T14:26:07.681Z</time>
      </trkpt>
      <trkpt lat="44.81054" lon="5.09559">
        <ele>839.06</ele>
        <time>2016-12-08T14:26:32.672Z</time>
      </trkpt>
      <trkpt lat="44.81066" lon="5.09588">
        <ele>835.88</ele>
        <time>2016-12-08T14:26:41.698Z</time>
      </trkpt>
      <trkpt lat="44.81088" lon="5.09579">
        <ele>841.83</ele>
        <time>2016-12-08T14:26:58.704Z</time>
      </trkpt>
      <trkpt lat="44.81108" lon="5.09597">
        <ele>842.38</ele>
        <time>2016-12-08T14:27:21.688Z</time>
      </trkpt>
      <trkpt lat="44.81128" lon="5.09619">
        <ele>842.65</ele>
        <time>2016-12-08T14:27:43.692Z</time>
      </trkpt>
      <trkpt lat="44.81132" lon="5.0965">
        <ele>837.73</ele>
        <time>2016-12-08T14:28:01.696Z</time>
      </trkpt>
      <trkpt lat="44.81155" lon="5.09662">
        <ele>841.04</ele>
        <time>2016-12-08T14:28:22.684Z</time>
      </trkpt>
      <trkpt lat="44.81165" lon="5.09691">
        <ele>841.17</ele>
        <time>2016-12-08T14:28:43.650Z</time>
      </trkpt>
      <trkpt lat="44.81177" lon="5.09719">
        <ele>843.49</ele>
        <time>2016-12-08T14:29:06.687Z</time>
      </trkpt>
      <trkpt lat="44.81185" lon="5.09749">
        <ele>843.47</ele>
        <time>2016-12-08T14:29:23.704Z</time>
      </trkpt>
      <trkpt lat="44.81198" lon="5.09775">
        <ele>841.75</ele>
        <time>2016-12-08T14:30:39.683Z</time>
      </trkpt>
      <trkpt lat="44.8121" lon="5.09803">
        <ele>837.38</ele>
        <time>2016-12-08T14:30:50.715Z</time>
      </trkpt>
      <trkpt lat="44.81226" lon="5.09826">
        <ele>834.95</ele>
        <time>2016-12-08T14:31:10.678Z</time>
      </trkpt>
      <trkpt lat="44.81242" lon="5.0985">
        <ele>833.25</ele>
        <time>2016-12-08T14:31:32.695Z</time>
      </trkpt>
      <trkpt lat="44.81251" lon="5.09882">
        <ele>827.51</ele>
        <time>2016-12-08T14:32:14.691Z</time>
      </trkpt>
      <trkpt lat="44.81266" lon="5.09905">
        <ele>826.21</ele>
        <time>2016-12-08T14:32:29.690Z</time>
      </trkpt>
      <trkpt lat="44.81282" lon="5.0993">
        <ele>823.68</ele>
        <time>2016-12-08T14:32:53.625Z</time>
      </trkpt>
      <trkpt lat="44.81295" lon="5.09959">
        <ele>818.63</ele>
        <time>2016-12-08T14:33:13.648Z</time>
      </trkpt>
      <trkpt lat="44.81306" lon="5.09989">
        <ele>812.78</ele>
        <time>2016-12-08T14:33:36.696Z</time>
      </trkpt>
      <trkpt lat="44.81311" lon="5.10023">
        <ele>804.57</ele>
        <time>2016-12-08T14:34:00.702Z</time>
      </trkpt>
      <trkpt lat="44.8133" lon="5.1004">
        <ele>805.67</ele>
        <time>2016-12-08T14:34:24.677Z</time>
      </trkpt>
      <trkpt lat="44.81338" lon="5.10071">
        <ele>800.7</ele>
        <time>2016-12-08T14:34:46.673Z</time>
      </trkpt>
      <trkpt lat="44.81354" lon="5.10098">
        <ele>802.03</ele>
        <time>2016-12-08T14:35:08.699Z</time>
      </trkpt>
      <trkpt lat="44.81366" lon="5.10124">
        <ele>803.95</ele>
        <time>2016-12-08T14:35:28.713Z</time>
      </trkpt>
      <trkpt lat="44.81377" lon="5.10153">
        <ele>803.94</ele>
        <time>2016-12-08T14:35:49.640Z</time>
      </trkpt>
      <trkpt lat="44.81394" lon="5.10174">
        <ele>801.99</ele>
        <time>2016-12-08T14:36:07.700Z</time>
      </trkpt>
      <trkpt lat="44.81413" lon="5.10192">
        <ele>798.53</ele>
        <time>2016-12-08T14:36:36.703Z</time>
      </trkpt>
      <trkpt lat="44.81424" lon="5.1022">
        <ele>792.8</ele>
        <time>2016-12-08T14:36:57.704Z</time>
      </trkpt>
      <trkpt lat="44.81406" lon="5.10243">
        <ele>790.37</ele>
        <time>2016-12-08T14:37:11.685Z</time>
      </trkpt>
      <trkpt lat="44.8142" lon="5.10269">
        <ele>784.2</ele>
        <time>2016-12-08T14:37:35.704Z</time>
      </trkpt>
      <trkpt lat="44.81415" lon="5.10301">
        <ele>778.8</ele>
        <time>2016-12-08T14:37:58.643Z</time>
      </trkpt>
      <trkpt lat="44.81409" lon="5.10331">
        <ele>773.89</ele>
        <time>2016-12-08T14:38:26.682Z</time>
      </trkpt>
      <trkpt lat="44.81399" lon="5.10362">
        <ele>769.31</ele>
        <time>2016-12-08T14:38:44.719Z</time>
      </trkpt>
      <trkpt lat="44.81415" lon="5.10384">
        <ele>764.41</ele>
        <time>2016-12-08T14:39:07.685Z</time>
      </trkpt>
      <trkpt lat="44.81438" lon="5.10389">
        <ele>764.69</ele>
        <time>2016-12-08T14:39:32.687Z</time>
      </trkpt>
      <trkpt lat="44.81432" lon="5.10421">
        <ele>760.51</ele>
        <time>2016-12-08T14:40:14.700Z</time>
      </trkpt>
      <trkpt lat="44.81414" lon="5.1044">
        <ele>757.69</ele>
        <time>2016-12-08T14:40:43.679Z</time>
      </trkpt>
      <trkpt lat="44.81395" lon="5.10462">
        <ele>755.87</ele>
        <time>2016-12-08T14:41:35.688Z</time>
      </trkpt>
      <trkpt lat="44.81377" lon="5.1048">
        <ele>754.98</ele>
        <time>2016-12-08T14:41:54.618Z</time>
      </trkpt>
      <trkpt lat="44.8136" lon="5.10502">
        <ele>754.6</ele>
        <time>2016-12-08T14:42:07.655Z</time>
      </trkpt>
      <trkpt lat="44.81337" lon="5.10512">
        <ele>756.08</ele>
        <time>2016-12-08T14:43:17.739Z</time>
      </trkpt>
      <trkpt lat="44.81316" lon="5.10526">
        <ele>758.69</ele>
        <time>2016-12-08T14:43:30.598Z</time>
      </trkpt>
      <trkpt lat="44.81295" lon="5.10537">
        <ele>762.32</ele>
        <time>2016-12-08T14:43:48.696Z</time>
      </trkpt>
      <trkpt lat="44.81276" lon="5.10558">
        <ele>763.16</ele>
        <time>2016-12-08T14:44:07.606Z</time>
      </trkpt>
      <trkpt lat="44.81253" lon="5.10575">
        <ele>763.21</ele>
        <time>2016-12-08T14:44:36.685Z</time>
      </trkpt>
      <trkpt lat="44.8123" lon="5.10586">
        <ele>763.11</ele>
        <time>2016-12-08T14:44:48.649Z</time>
      </trkpt>
      <trkpt lat="44.81208" lon="5.10595">
        <ele>763.12</ele>
        <time>2016-12-08T14:44:58.684Z</time>
      </trkpt>
      <trkpt lat="44.81182" lon="5.10595">
        <ele>762.62</ele>
        <time>2016-12-08T14:45:38.679Z</time>
      </trkpt>
      <trkpt lat="44.81158" lon="5.10598">
        <ele>762.41</ele>
        <time>2016-12-08T14:45:46.694Z</time>
      </trkpt>
      <trkpt lat="44.81133" lon="5.10589">
        <ele>761.63</ele>
        <time>2016-12-08T14:46:03.708Z</time>
      </trkpt>
      <trkpt lat="44.81111" lon="5.10602">
        <ele>762.07</ele>
        <time>2016-12-08T14:46:21.717Z</time>
      </trkpt>
      <trkpt lat="44.81088" lon="5.10591">
        <ele>760.52</ele>
        <time>2016-12-08T14:46:33.673Z</time>
      </trkpt>
      <trkpt lat="44.81065" lon="5.10585">
        <ele>758.71</ele>
        <time>2016-12-08T14:46:48.643Z</time>
      </trkpt>
      <trkpt lat="44.81043" lon="5.10576">
        <ele>756.48</ele>
        <time>2016-12-08T14:47:15.632Z</time>
      </trkpt>
      <trkpt lat="44.81019" lon="5.10576">
        <ele>753.8</ele>
        <time>2016-12-08T14:47:30.652Z</time>
      </trkpt>
      <trkpt lat="44.80996" lon="5.10579">
        <ele>751.45</ele>
        <time>2016-12-08T14:47:55.634Z</time>
      </trkpt>
      <trkpt lat="44.80973" lon="5.10566">
        <ele>748.74</ele>
        <time>2016-12-08T14:48:18.592Z</time>
      </trkpt>
      <trkpt lat="44.80949" lon="5.10554">
        <ele>746.25</ele>
        <time>2016-12-08T14:48:38.582Z</time>
      </trkpt>
      <trkpt lat="44.80927" lon="5.10541">
        <ele>744.26</ele>
        <time>2016-12-08T14:48:57.596Z</time>
      </trkpt>
      <trkpt lat="44.80911" lon="5.1052">
        <ele>742.69</ele>
        <time>2016-12-08T14:49:17.631Z</time>
      </trkpt>
      <trkpt lat="44.80898" lon="5.10491">
        <ele>739.85</ele>
        <time>2016-12-08T14:49:46.632Z</time>
      </trkpt>
      <trkpt lat="44.80876" lon="5.10482">
        <ele>735.84</ele>
        <time>2016-12-08T14:50:10.630Z</time>
      </trkpt>
      <trkpt lat="44.80853" lon="5.10489">
        <ele>733.49</ele>
        <time>2016-12-08T14:50:45.648Z</time>
      </trkpt>
      <trkpt lat="44.80845" lon="5.1052">
        <ele>734.15</ele>
        <time>2016-12-08T14:52:24.599Z</time>
      </trkpt>
      <trkpt lat="44.80852" lon="5.10551">
        <ele>735.8</ele>
        <time>2016-12-08T14:52:43.567Z</time>
      </trkpt>
      <trkpt lat="44.80841" lon="5.1058">
        <ele>735.65</ele>
        <time>2016-12-08T14:53:10.693Z</time>
      </trkpt>
      <trkpt lat="44.80833" lon="5.10613">
        <ele>736.5</ele>
        <time>2016-12-08T14:53:29.660Z</time>
      </trkpt>
      <trkpt lat="44.80828" lon="5.10645">
        <ele>737.72</ele>
        <time>2016-12-08T14:53:48.657Z</time>
      </trkpt>
      <trkpt lat="44.80818" lon="5.10676">
        <ele>738.6</ele>
        <time>2016-12-08T14:54:04.599Z</time>
      </trkpt>
      <trkpt lat="44.80805" lon="5.10703">
        <ele>740.05</ele>
        <time>2016-12-08T14:54:23.584Z</time>
      </trkpt>
      <trkpt lat="44.80792" lon="5.10731">
        <ele>741.79</ele>
        <time>2016-12-08T14:54:43.658Z</time>
      </trkpt>
      <trkpt lat="44.80778" lon="5.1076">
        <ele>741.73</ele>
        <time>2016-12-08T14:55:03.631Z</time>
      </trkpt>
      <trkpt lat="44.80766" lon="5.10787">
        <ele>740.67</ele>
        <time>2016-12-08T14:55:24.721Z</time>
      </trkpt>
      <trkpt lat="44.80747" lon="5.10804">
        <ele>738.58</ele>
        <time>2016-12-08T14:55:49.693Z</time>
      </trkpt>
      <trkpt lat="44.80725" lon="5.10815">
        <ele>736.85</ele>
        <time>2016-12-08T14:56:28.687Z</time>
      </trkpt>
      <trkpt lat="44.80701" lon="5.10822">
        <ele>735.66</ele>
        <time>2016-12-08T14:56:52.670Z</time>
      </trkpt>
      <trkpt lat="44.80678" lon="5.10823">
        <ele>734.94</ele>
        <time>2016-12-08T14:57:16.642Z</time>
      </trkpt>
      <trkpt lat="44.80656" lon="5.10833">
        <ele>733.69</ele>
        <time>2016-12-08T14:57:31.652Z</time>
      </trkpt>
      <trkpt lat="44.80634" lon="5.10826">
        <ele>733.28</ele>
        <time>2016-12-08T14:57:52.630Z</time>
      </trkpt>
      <trkpt lat="44.80611" lon="5.10821">
        <ele>732.56</ele>
        <time>2016-12-08T14:58:08.634Z</time>
      </trkpt>
      <trkpt lat="44.80588" lon="5.10814">
        <ele>731.59</ele>
        <time>2016-12-08T14:58:26.630Z</time>
      </trkpt>
      <trkpt lat="44.80565" lon="5.10817">
        <ele>730.14</ele>
        <time>2016-12-08T14:58:48.639Z</time>
      </trkpt>
      <trkpt lat="44.80543" lon="5.10814">
        <ele>728.3</ele>
        <time>2016-12-08T14:59:08.640Z</time>
      </trkpt>
      <trkpt lat="44.80519" lon="5.10812">
        <ele>726.71</ele>
        <time>2016-12-08T14:59:24.653Z</time>
      </trkpt>
      <trkpt lat="44.80498" lon="5.10803">
        <ele>726.19</ele>
        <time>2016-12-08T14:59:42.652Z</time>
      </trkpt>
      <trkpt lat="44.80472" lon="5.10799">
        <ele>726.56</ele>
        <time>2016-12-08T15:00:04.702Z</time>
      </trkpt>
      <trkpt lat="44.80449" lon="5.10802">
        <ele>727.49</ele>
        <time>2016-12-08T15:00:23.598Z</time>
      </trkpt>
      <trkpt lat="44.80425" lon="5.10806">
        <ele>728.41</ele>
        <time>2016-12-08T15:00:40.661Z</time>
      </trkpt>
      <trkpt lat="44.80401" lon="5.10809">
        <ele>728.79</ele>
        <time>2016-12-08T15:01:04.659Z</time>
      </trkpt>
      <trkpt lat="44.80378" lon="5.10811">
        <ele>729.02</ele>
        <time>2016-12-08T15:01:22.676Z</time>
      </trkpt>
      <trkpt lat="44.80357" lon="5.10794">
        <ele>729.31</ele>
        <time>2016-12-08T15:01:42.637Z</time>
      </trkpt>
      <trkpt lat="44.80338" lon="5.10774">
        <ele>727.84</ele>
        <time>2016-12-08T15:02:04.675Z</time>
      </trkpt>
      <trkpt lat="44.80324" lon="5.10747">
        <ele>727.22</ele>
        <time>2016-12-08T15:02:12.667Z</time>
      </trkpt>
      <trkpt lat="44.80302" lon="5.10731">
        <ele>727.92</ele>
        <time>2016-12-08T15:02:38.662Z</time>
      </trkpt>
      <trkpt lat="44.80279" lon="5.10724">
        <ele>728.49</ele>
        <time>2016-12-08T15:02:54.666Z</time>
      </trkpt>
      <trkpt lat="44.80261" lon="5.10705">
        <ele>729.17</ele>
        <time>2016-12-08T15:03:11.631Z</time>
      </trkpt>
      <trkpt lat="44.8024" lon="5.10692">
        <ele>729.62</ele>
        <time>2016-12-08T15:03:35.634Z</time>
      </trkpt>
      <trkpt lat="44.80218" lon="5.1069">
        <ele>729.98</ele>
        <time>2016-12-08T15:03:44.683Z</time>
      </trkpt>
      <trkpt lat="44.80194" lon="5.10689">
        <ele>730.36</ele>
        <time>2016-12-08T15:04:07.637Z</time>
      </trkpt>
      <trkpt lat="44.80171" lon="5.10693">
        <ele>730.98</ele>
        <time>2016-12-08T15:04:31.657Z</time>
      </trkpt>
      <trkpt lat="44.80148" lon="5.1068">
        <ele>731.81</ele>
        <time>2016-12-08T15:04:42.632Z</time>
      </trkpt>
      <trkpt lat="44.80124" lon="5.10678">
        <ele>732.91</ele>
        <time>2016-12-08T15:05:03.735Z</time>
      </trkpt>
      <trkpt lat="44.80102" lon="5.10686">
        <ele>734.54</ele>
        <time>2016-12-08T15:05:22.634Z</time>
      </trkpt>
      <trkpt lat="44.8008" lon="5.10692">
        <ele>736.18</ele>
        <time>2016-12-08T15:05:43.609Z</time>
      </trkpt>
      <trkpt lat="44.80057" lon="5.10697">
        <ele>737.43</ele>
        <time>2016-12-08T15:06:00.615Z</time>
      </trkpt>
      <trkpt lat="44.80035" lon="5.10705">
        <ele>738.48</ele>
        <time>2016-12-08T15:06:24.592Z</time>
      </trkpt>
      <trkpt lat="44.80012" lon="5.1071">
        <ele>739.2</ele>
        <time>2016-12-08T15:06:37.578Z</time>
      </trkpt>
      <trkpt lat="44.79987" lon="5.10717">
        <ele>740.05</ele>
        <time>2016-12-08T15:06:56.605Z</time>
      </trkpt>
      <trkpt lat="44.79965" lon="5.10705">
        <ele>740.28</ele>
        <time>2016-12-08T15:07:17.628Z</time>
      </trkpt>
      <trkpt lat="44.79943" lon="5.10707">
        <ele>740.98</ele>
        <time>2016-12-08T15:07:54.560Z</time>
      </trkpt>
      <trkpt lat="44.7992" lon="5.10709">
        <ele>741.69</ele>
        <time>2016-12-08T15:07:59.633Z</time>
      </trkpt>
      <trkpt lat="44.79897" lon="5.10702">
        <ele>741.82</ele>
        <time>2016-12-08T15:08:13.647Z</time>
      </trkpt>
      <trkpt lat="44.79874" lon="5.107">
        <ele>742.23</ele>
        <time>2016-12-08T15:08:38.638Z</time>
      </trkpt>
      <trkpt lat="44.79851" lon="5.10695">
        <ele>742.49</ele>
        <time>2016-12-08T15:08:56.643Z</time>
      </trkpt>
      <trkpt lat="44.79826" lon="5.10689">
        <ele>742.51</ele>
        <time>2016-12-08T15:09:16.660Z</time>
      </trkpt>
      <trkpt lat="44.79803" lon="5.10691">
        <ele>743.09</ele>
        <time>2016-12-08T15:09:35.682Z</time>
      </trkpt>
      <trkpt lat="44.7978" lon="5.10691">
        <ele>743.26</ele>
        <time>2016-12-08T15:09:58.635Z</time>
      </trkpt>
      <trkpt lat="44.79759" lon="5.10675">
        <ele>740.11</ele>
        <time>2016-12-08T15:10:20.640Z</time>
      </trkpt>
      <trkpt lat="44.79729" lon="5.10667">
        <ele>739.06</ele>
        <time>2016-12-08T15:10:34.613Z</time>
      </trkpt>
      <trkpt lat="44.79706" lon="5.1066">
        <ele>739.3</ele>
        <time>2016-12-08T15:10:56.645Z</time>
      </trkpt>
      <trkpt lat="44.79686" lon="5.10645">
        <ele>739.15</ele>
        <time>2016-12-08T15:11:20.647Z</time>
      </trkpt>
      <trkpt lat="44.79667" lon="5.10626">
        <ele>737.81</ele>
        <time>2016-12-08T15:11:31.664Z</time>
      </trkpt>
      <trkpt lat="44.79647" lon="5.10612">
        <ele>736.49</ele>
        <time>2016-12-08T15:11:55.637Z</time>
      </trkpt>
      <trkpt lat="44.79625" lon="5.10601">
        <ele>735.91</ele>
        <time>2016-12-08T15:12:14.648Z</time>
      </trkpt>
      <trkpt lat="44.79604" lon="5.10589">
        <ele>734.89</ele>
        <time>2016-12-08T15:12:38.627Z</time>
      </trkpt>
      <trkpt lat="44.79581" lon="5.1058">
        <ele>732.67</ele>
        <time>2016-12-08T15:12:56.644Z</time>
      </trkpt>
      <trkpt lat="44.79559" lon="5.10574">
        <ele>729.29</ele>
        <time>2016-12-08T15:13:54.620Z</time>
      </trkpt>
      <trkpt lat="44.79536" lon="5.10579">
        <ele>724.3</ele>
        <time>2016-12-08T15:14:47.592Z</time>
      </trkpt>
      <trkpt lat="44.79513" lon="5.1058">
        <ele>717.55</ele>
        <time>2016-12-08T15:16:07.674Z</time>
      </trkpt>
      <trkpt lat="44.79491" lon="5.10569">
        <ele>711.31</ele>
        <time>2016-12-08T15:16:28.667Z</time>
      </trkpt>
      <trkpt lat="44.79472" lon="5.10552">
        <ele>706.19</ele>
        <time>2016-12-08T15:17:05.682Z</time>
      </trkpt>
      <trkpt lat="44.79472" lon="5.1052">
        <ele>709.57</ele>
        <time>2016-12-08T15:18:49.588Z</time>
      </trkpt>
      <trkpt lat="44.79476" lon="5.10488">
        <ele>706.66</ele>
        <time>2016-12-08T15:24:37.666Z</time>
      </trkpt>
      <trkpt lat="44.79453" lon="5.10493">
        <ele>700.15</ele>
        <time>2016-12-08T15:25:04.660Z</time>
      </trkpt>
      <trkpt lat="44.79431" lon="5.10511">
        <ele>692.18</ele>
        <time>2016-12-08T15:26:12.579Z</time>
      </trkpt>
      <trkpt lat="44.79412" lon="5.10527">
        <ele>680.88</ele>
        <time>2016-12-08T15:26:35.622Z</time>
      </trkpt>
      <trkpt lat="44.79417" lon="5.1056">
        <ele>675.02</ele>
        <time>2016-12-08T15:28:38.582Z</time>
      </trkpt>
      <trkpt lat="44.79406" lon="5.10593">
        <ele>659.41</ele>
        <time>2016-12-08T15:30:08.582Z</time>
      </trkpt>
      <trkpt lat="44.79425" lon="5.10611">
        <ele>663.21</ele>
        <time>2016-12-08T15:30:32.644Z</time>
      </trkpt>
      <trkpt lat="44.79425" lon="5.10643">
        <ele>651.6</ele>
        <time>2016-12-08T15:35:19.656Z</time>
      </trkpt>
      <trkpt lat="44.79405" lon="5.10658">
        <ele>636.61</ele>
        <time>2016-12-08T15:35:43.652Z</time>
      </trkpt>
      <trkpt lat="44.79382" lon="5.10653">
        <ele>628.46</ele>
        <time>2016-12-08T15:36:11.653Z</time>
      </trkpt>
      <trkpt lat="44.79359" lon="5.10648">
        <ele>620.26</ele>
        <time>2016-12-08T15:37:11.664Z</time>
      </trkpt>
      <trkpt lat="44.79341" lon="5.10629">
        <ele>617.58</ele>
        <time>2016-12-08T15:37:38.669Z</time>
      </trkpt>
      <trkpt lat="44.79317" lon="5.10621">
        <ele>609.69</ele>
        <time>2016-12-08T15:38:01.647Z</time>
      </trkpt>
      <trkpt lat="44.79295" lon="5.10613">
        <ele>602.68</ele>
        <time>2016-12-08T15:39:57.653Z</time>
      </trkpt>
      <trkpt lat="44.79273" lon="5.10599">
        <ele>595.89</ele>
        <time>2016-12-08T15:40:07.667Z</time>
      </trkpt>
      <trkpt lat="44.7925" lon="5.10606">
        <ele>586.46</ele>
        <time>2016-12-08T15:40:52.664Z</time>
      </trkpt>
      <trkpt lat="44.79273" lon="5.10621">
        <ele>592.77</ele>
        <time>2016-12-08T15:41:21.665Z</time>
      </trkpt>
      <trkpt lat="44.79287" lon="5.10646">
        <ele>593.54</ele>
        <time>2016-12-08T15:41:41.615Z</time>
      </trkpt>
      <trkpt lat="44.79299" lon="5.10674">
        <ele>591.63</ele>
        <time>2016-12-08T15:42:00.695Z</time>
      </trkpt>
      <trkpt lat="44.79312" lon="5.10701">
        <ele>589.35</ele>
        <time>2016-12-08T15:42:32.566Z</time>
      </trkpt>
      <trkpt lat="44.79333" lon="5.10717">
        <ele>591.94</ele>
        <time>2016-12-08T15:42:39.689Z</time>
      </trkpt>
      <trkpt lat="44.79345" lon="5.10747">
        <ele>588.1</ele>
        <time>2016-12-08T15:43:05.661Z</time>
      </trkpt>
      <trkpt lat="44.79362" lon="5.10778">
        <ele>586.07</ele>
        <time>2016-12-08T15:44:07.655Z</time>
      </trkpt>
      <trkpt lat="44.79384" lon="5.10801">
        <ele>587.84</ele>
        <time>2016-12-08T15:44:12.668Z</time>
      </trkpt>
      <trkpt lat="44.79395" lon="5.1081">
        <ele>589.1</ele>
        <time>2016-12-08T15:46:11.538Z</time>
      </trkpt>
    </trkseg>
  </trk>
</gpx>